Time;durP1;ratioP1;P1;durP2;ratioP2;P2;SDS_P1;SDS_P2;PMS_P1;PMS_P2;Temp;Humidity;BMP_temperature;BMP_pressure;BME280_temperature;BME280_humidity;BME280_pressure;Samples;Min_cycle;Max_cycle;Signal;HPM_P1;HPM_P2
2023/07/04 00:01:21;;;;;;;7.30;2.60;;;;;;;;;;5057597;28;20554;-79
2023/07/04 00:03:50;;;;;;;7.47;3.17;;;;;;;;;;5058300;28;20411;-80
2023/07/04 00:06:17;;;;;;;11.67;2.90;;;;;;;;;;5058498;28;20872;-79
2023/07/04 00:08:44;;;;;;;14.23;2.90;;;;;;;;;;5055679;28;20414;-79
2023/07/04 00:11:11;;;;;;;10.47;2.70;;;;;;;;;;5058976;28;20819;-78
2023/07/04 00:13:37;;;;;;;9.03;3.87;;;;;;;;;;5057414;28;20489;-79
2023/07/04 00:16:08;;;;;;;9.27;3.83;;;;;;;;;;5053937;28;20379;-79
2023/07/04 00:18:36;;;;;;;5.83;2.47;;;;;;;;;;5053828;28;20412;-79
2023/07/04 00:21:03;;;;;;;6.80;2.47;;;;;;;;;;5054070;28;20422;-79
2023/07/04 00:23:34;;;;;;;6.57;2.77;;;;;;;;;;5055027;28;20405;-84
2023/07/04 00:26:00;;;;;;;5.07;2.30;;;;;;;;;;5054326;28;20411;-78
2023/07/04 00:28:27;;;;;;;12.13;2.97;;;;;;;;;;5053336;28;20407;-78
2023/07/04 00:30:54;;;;;;;8.17;3.10;;;;;;;;;;5054818;28;20812;-78
2023/07/04 00:33:21;;;;;;;10.13;2.87;;;;;;;;;;5054527;28;20880;-78
2023/07/04 00:35:47;;;;;;;12.23;3.30;;;;;;;;;;5054338;28;20609;-78
2023/07/04 00:38:14;;;;;;;11.93;2.60;;;;;;;;;;5054139;28;20797;-79
2023/07/04 00:40:40;;;;;;;14.83;4.30;;;;;;;;;;5052908;28;20427;-79
2023/07/04 00:43:10;;;;;;;6.97;3.00;;;;;;;;;;5054349;28;20534;-79
2023/07/04 00:45:42;;;;;;;10.03;3.00;;;;;;;;;;5054926;28;20403;-80
2023/07/04 00:48:09;;;;;;;6.10;2.47;;;;;;;;;;5052895;28;20419;-80
2023/07/04 00:50:38;;;;;;;9.33;2.97;;;;;;;;;;5053827;28;20442;-80
2023/07/04 00:53:06;;;;;;;7.23;3.30;;;;;;;;;;5054332;28;20470;-80
2023/07/04 00:55:32;;;;;;;6.77;2.40;;;;;;;;;;5055652;28;20456;-83
2023/07/04 00:58:04;;;;;;;8.60;2.87;;;;;;;;;;5056957;28;20440;-79
2023/07/04 01:00:31;;;;;;;8.97;3.73;;;;;;;;;;5055427;28;20402;-80
2023/07/04 01:03:18;;;;;;;7.97;3.13;;;;;;;;;;5052617;28;20428;-80
2023/07/04 01:06:06;;;;;;;13.20;3.17;;;;;;;;;;5053513;28;20431;-79
2023/07/04 01:08:32;;;;;;;11.90;3.23;;;;;;;;;;5052729;28;20435;-81
2023/07/04 01:11:02;;;;;;;5.30;2.43;;;;;;;;;;5052576;28;20399;-80
2023/07/04 01:13:28;;;;;;;12.17;2.97;;;;;;;;;;5054819;28;20410;-80
2023/07/04 01:15:53;;;;;;;11.40;2.40;;;;;;;;;;5053922;28;20430;-79
2023/07/04 01:18:20;;;;;;;10.27;2.87;;;;;;;;;;5053982;28;20428;-79
2023/07/04 01:20:47;;;;;;;7.63;2.90;;;;;;;;;;5054322;28;20404;-79
2023/07/04 01:23:14;;;;;;;9.07;3.13;;;;;;;;;;5054464;28;20400;-80
2023/07/04 01:25:43;;;;;;;8.90;3.30;;;;;;;;;;5053082;28;20412;-80
2023/07/04 01:28:10;;;;;;;10.83;3.43;;;;;;;;;;5058186;28;20404;-81
2023/07/04 01:30:38;;;;;;;8.20;2.97;;;;;;;;;;5039949;28;20833;-80
2023/07/04 01:33:05;;;;;;;10.70;3.17;;;;;;;;;;5055841;28;20903;-80
2023/07/04 01:35:33;;;;;;;10.63;2.90;;;;;;;;;;5057676;28;20495;-79
2023/07/04 01:37:59;;;;;;;8.20;3.03;;;;;;;;;;5057791;28;20804;-80
2023/07/04 01:40:25;;;;;;;8.43;3.43;;;;;;;;;;5055912;28;20748;-79
2023/07/04 01:42:51;;;;;;;12.00;3.07;;;;;;;;;;5057685;28;20452;-78
2023/07/04 01:45:18;;;;;;;14.60;3.20;;;;;;;;;;5058022;28;20806;-79
2023/07/04 01:47:44;;;;;;;11.80;2.80;;;;;;;;;;5056964;28;20453;-79
2023/07/04 01:50:11;;;;;;;9.63;3.20;;;;;;;;;;5057740;28;20379;-79
2023/07/04 01:52:37;;;;;;;6.60;2.60;;;;;;;;;;5057093;28;20442;-79
2023/07/04 01:55:03;;;;;;;5.33;2.23;;;;;;;;;;5056847;28;20465;-80
2023/07/04 01:57:29;;;;;;;7.80;3.20;;;;;;;;;;5057825;28;20458;-81
2023/07/04 01:59:55;;;;;;;13.30;3.37;;;;;;;;;;5057555;28;20398;-80
2023/07/04 02:02:21;;;;;;;14.60;3.77;;;;;;;;;;5055270;28;20404;-79
2023/07/04 02:04:47;;;;;;;11.80;4.00;;;;;;;;;;5039209;28;20429;-80
2023/07/04 02:07:13;;;;;;;9.33;3.10;;;;;;;;;;5057117;28;20495;-79
2023/07/04 02:09:39;;;;;;;15.63;3.67;;;;;;;;;;5055622;28;20505;-81
2023/07/04 02:12:05;;;;;;;9.77;2.93;;;;;;;;;;5056353;28;20423;-79
2023/07/04 02:14:31;;;;;;;12.10;3.80;;;;;;;;;;5056814;28;20464;-79
2023/07/04 02:16:57;;;;;;;9.77;2.97;;;;;;;;;;5055915;28;20926;-78
2023/07/04 02:19:23;;;;;;;5.70;2.70;;;;;;;;;;5057103;28;20876;-79
2023/07/04 02:21:49;;;;;;;12.10;3.23;;;;;;;;;;5039298;28;20416;-78
2023/07/04 02:24:15;;;;;;;11.93;4.50;;;;;;;;;;5055574;28;20486;-78
2023/07/04 02:26:41;;;;;;;12.33;4.43;;;;;;;;;;5054425;28;20424;-79
2023/07/04 02:29:07;;;;;;;13.20;2.93;;;;;;;;;;5056467;28;20420;-78
2023/07/04 02:31:33;;;;;;;12.93;3.80;;;;;;;;;;5055648;28;20415;-80
2023/07/04 02:33:59;;;;;;;12.80;2.97;;;;;;;;;;5055940;28;20404;-79
2023/07/04 02:36:25;;;;;;;5.33;2.73;;;;;;;;;;5054751;28;20681;-79
2023/07/04 02:38:51;;;;;;;12.23;3.87;;;;;;;;;;5054508;28;20439;-79
2023/07/04 02:41:17;;;;;;;13.00;3.37;;;;;;;;;;5056614;28;20400;-81
2023/07/04 02:43:43;;;;;;;10.77;2.90;;;;;;;;;;5055865;28;20487;-79
2023/07/04 02:46:09;;;;;;;9.23;3.47;;;;;;;;;;5054725;28;20408;-79
2023/07/04 02:48:35;;;;;;;11.97;3.00;;;;;;;;;;5055964;28;20415;-80
2023/07/04 02:51:02;;;;;;;8.37;2.70;;;;;;;;;;5055080;28;20912;-79
2023/07/04 02:53:28;;;;;;;8.50;2.73;;;;;;;;;;5056496;28;20417;-79
2023/07/04 02:55:54;;;;;;;11.23;3.30;;;;;;;;;;5056590;28;20871;-79
2023/07/04 02:58:21;;;;;;;9.97;3.33;;;;;;;;;;5056476;28;20411;-79
2023/07/04 03:00:48;;;;;;;12.13;3.50;;;;;;;;;;5055377;28;20420;-79
2023/07/04 03:03:14;;;;;;;12.63;4.10;;;;;;;;;;5056138;28;20763;-79
2023/07/04 03:05:40;;;;;;;8.70;3.13;;;;;;;;;;5054664;28;20862;-79
2023/07/04 03:08:06;;;;;;;13.73;3.40;;;;;;;;;;5056387;28;20448;-79
2023/07/04 03:10:33;;;;;;;16.23;3.90;;;;;;;;;;5055815;28;20403;-79
2023/07/04 03:12:59;;;;;;;8.67;3.30;;;;;;;;;;5056060;28;20777;-79
2023/07/04 03:15:25;;;;;;;18.30;3.27;;;;;;;;;;5055013;28;20463;-79
2023/07/04 03:17:51;;;;;;;12.37;3.40;;;;;;;;;;5054556;28;20755;-80
2023/07/04 03:20:17;;;;;;;13.37;3.43;;;;;;;;;;5055854;28;20411;-79
2023/07/04 03:22:43;;;;;;;16.83;4.00;;;;;;;;;;5055884;28;20408;-80
2023/07/04 03:25:10;;;;;;;13.60;4.53;;;;;;;;;;5060005;28;20766;-78
2023/07/04 03:27:37;;;;;;;8.10;3.67;;;;;;;;;;5058782;28;20392;-78
2023/07/04 03:30:04;;;;;;;18.73;3.90;;;;;;;;;;5056034;28;20422;-78
2023/07/04 03:32:31;;;;;;;9.03;3.63;;;;;;;;;;5056471;28;20424;-78
2023/07/04 03:35:01;;;;;;;18.13;4.90;;;;;;;;;;5055543;28;20522;-78
2023/07/04 03:37:27;;;;;;;8.90;3.57;;;;;;;;;;5054753;28;20958;-79
2023/07/04 03:39:53;;;;;;;9.70;3.20;;;;;;;;;;5054869;28;20400;-78
2023/07/04 03:42:19;;;;;;;8.97;3.93;;;;;;;;;;5055524;28;20462;-79
2023/07/04 03:44:46;;;;;;;12.33;3.60;;;;;;;;;;5055483;28;20456;-79
2023/07/04 03:47:12;;;;;;;14.50;3.70;;;;;;;;;;5055966;28;20419;-78
2023/07/04 03:49:38;;;;;;;12.53;4.43;;;;;;;;;;5055553;28;20765;-79
2023/07/04 03:52:04;;;;;;;18.70;4.17;;;;;;;;;;5053759;28;20967;-79
2023/07/04 03:54:30;;;;;;;17.20;4.30;;;;;;;;;;5055412;28;20503;-79
2023/07/04 03:56:56;;;;;;;11.20;4.00;;;;;;;;;;5054983;28;20412;-78
2023/07/04 03:59:22;;;;;;;13.20;5.77;;;;;;;;;;5054139;28;20439;-78
2023/07/04 04:01:48;;;;;;;12.67;3.73;;;;;;;;;;5037399;28;20486;-79
2023/07/04 04:04:14;;;;;;;12.17;3.93;;;;;;;;;;5054148;28;20444;-79
2023/07/04 04:06:40;;;;;;;13.70;4.10;;;;;;;;;;5055795;28;20404;-78
2023/07/04 04:09:06;;;;;;;16.37;4.00;;;;;;;;;;5053718;28;20512;-79
2023/07/04 04:11:32;;;;;;;13.87;3.67;;;;;;;;;;5055254;28;20440;-78
2023/07/04 04:13:58;;;;;;;8.73;3.33;;;;;;;;;;5054109;28;20810;-79
2023/07/04 04:16:24;;;;;;;18.13;5.17;;;;;;;;;;5037516;28;20916;-79
2023/07/04 04:18:51;;;;;;;14.73;4.90;;;;;;;;;;5055117;28;20403;-78
2023/07/04 04:21:18;;;;;;;12.20;4.17;;;;;;;;;;5054303;28;20823;-79
2023/07/04 04:23:44;;;;;;;8.50;3.63;;;;;;;;;;5055200;28;20422;-79
2023/07/04 04:26:14;;;;;;;12.50;3.70;;;;;;;;;;5055289;28;20760;-79
2023/07/04 04:28:40;;;;;;;14.40;3.97;;;;;;;;;;5055422;28;20389;-79
2023/07/04 04:31:06;;;;;;;15.10;3.70;;;;;;;;;;5053611;28;20434;-79
2023/07/04 04:33:33;;;;;;;15.30;5.13;;;;;;;;;;5054008;28;20416;-79
2023/07/04 04:35:59;;;;;;;11.00;4.53;;;;;;;;;;5055204;28;20459;-80
2023/07/04 04:38:25;;;;;;;11.03;3.70;;;;;;;;;;5037414;28;20433;-80
2023/07/04 04:40:51;;;;;;;9.40;3.63;;;;;;;;;;5054866;28;20412;-79
2023/07/04 04:43:17;;;;;;;17.30;3.80;;;;;;;;;;5055169;28;20460;-79
2023/07/04 04:45:43;;;;;;;14.40;3.70;;;;;;;;;;5037257;28;20507;-79
2023/07/04 04:48:09;;;;;;;14.10;4.67;;;;;;;;;;5054299;28;20430;-80
2023/07/04 04:50:36;;;;;;;16.63;3.40;;;;;;;;;;5055559;28;20415;-79
2023/07/04 04:53:02;;;;;;;12.90;4.60;;;;;;;;;;5053315;28;20538;-79
2023/07/04 04:55:28;;;;;;;14.67;3.70;;;;;;;;;;5055118;28;20459;-80
2023/07/04 04:57:54;;;;;;;17.00;4.40;;;;;;;;;;5053573;28;20416;-79
2023/07/04 05:00:20;;;;;;;13.23;4.70;;;;;;;;;;5053431;28;20416;-80
2023/07/04 05:02:46;;;;;;;13.77;3.50;;;;;;;;;;5058991;28;20407;-81
2023/07/04 05:05:13;;;;;;;12.10;3.87;;;;;;;;;;5058295;28;20438;-79
2023/07/04 05:07:39;;;;;;;11.47;4.33;;;;;;;;;;5059063;28;20482;-80
2023/07/04 05:10:05;;;;;;;9.47;3.43;;;;;;;;;;5058811;28;20511;-79
2023/07/04 05:12:32;;;;;;;14.20;3.90;;;;;;;;;;5058936;28;20412;-80
2023/07/04 05:14:58;;;;;;;11.10;3.90;;;;;;;;;;5058445;28;20550;-80
2023/07/04 05:17:25;;;;;;;11.90;3.50;;;;;;;;;;5057205;28;20844;-80
2023/07/04 05:19:51;;;;;;;14.87;3.30;;;;;;;;;;5058362;28;20446;-80
2023/07/04 05:22:18;;;;;;;9.30;3.50;;;;;;;;;;5058797;28;20400;-80
2023/07/04 05:24:44;;;;;;;15.60;3.70;;;;;;;;;;5057611;28;20415;-79
2023/07/04 05:27:10;;;;;;;13.10;3.53;;;;;;;;;;5057322;28;20396;-80
2023/07/04 05:29:36;;;;;;;16.37;5.03;;;;;;;;;;5057214;28;20425;-79
2023/07/04 05:32:02;;;;;;;11.60;3.07;;;;;;;;;;5058355;28;20408;-80
2023/07/04 05:34:28;;;;;;;11.83;4.20;;;;;;;;;;5058217;28;20445;-79
2023/07/04 05:36:54;;;;;;;8.30;3.37;;;;;;;;;;5057899;28;20404;-80
2023/07/04 05:39:20;;;;;;;14.33;3.47;;;;;;;;;;5058462;28;20629;-79
2023/07/04 05:41:46;;;;;;;14.90;3.77;;;;;;;;;;5059835;28;20428;-79
2023/07/04 05:44:12;;;;;;;22.03;4.83;;;;;;;;;;5057183;28;20470;-80
2023/07/04 05:46:38;;;;;;;15.47;4.20;;;;;;;;;;5056817;28;20423;-79
2023/07/04 05:49:05;;;;;;;12.70;3.67;;;;;;;;;;5056791;28;20386;-80
2023/07/04 05:51:31;;;;;;;10.70;3.57;;;;;;;;;;5058069;28;20495;-80
2023/07/04 05:53:58;;;;;;;14.87;4.00;;;;;;;;;;5057753;28;20439;-80
2023/07/04 05:56:25;;;;;;;8.23;2.93;;;;;;;;;;5057612;28;20400;-79
2023/07/04 05:58:52;;;;;;;8.53;3.37;;;;;;;;;;5057572;28;20431;-80
2023/07/04 06:01:20;;;;;;;13.83;3.37;;;;;;;;;;5058302;28;20764;-79
2023/07/04 06:03:46;;;;;;;14.80;4.70;;;;;;;;;;5056541;28;20515;-80
2023/07/04 06:06:25;;;;;;;10.37;3.27;;;;;;;;;;5057538;28;20444;-79
2023/07/04 06:08:51;;;;;;;11.20;3.67;;;;;;;;;;5055830;28;20435;-79
2023/07/04 06:11:17;;;;;;;16.33;4.80;;;;;;;;;;5056425;28;20529;-80
2023/07/04 06:13:44;;;;;;;16.30;4.67;;;;;;;;;;5039759;28;20446;-80
2023/07/04 06:16:09;;;;;;;11.87;3.60;;;;;;;;;;5056420;28;20981;-80
2023/07/04 06:18:35;;;;;;;13.10;4.33;;;;;;;;;;5057306;28;20462;-79
2023/07/04 06:21:05;;;;;;;9.30;3.43;;;;;;;;;;5056136;28;20759;-81
2023/07/04 06:23:31;;;;;;;13.73;3.40;;;;;;;;;;5057935;28;20439;-79
2023/07/04 06:25:57;;;;;;;10.70;3.60;;;;;;;;;;5056927;28;20431;-79
2023/07/04 06:28:23;;;;;;;17.03;3.23;;;;;;;;;;5056188;28;20825;-80
2023/07/04 06:30:49;;;;;;;9.50;3.50;;;;;;;;;;5057125;28;20797;-80
2023/07/04 06:33:16;;;;;;;16.43;3.70;;;;;;;;;;5056769;28;20474;-79
2023/07/04 06:35:42;;;;;;;11.43;3.77;;;;;;;;;;5056805;28;20508;-79
2023/07/04 06:38:09;;;;;;;20.83;3.43;;;;;;;;;;5057221;28;20406;-80
2023/07/04 06:40:35;;;;;;;12.83;5.30;;;;;;;;;;5057749;28;20408;-80
2023/07/04 06:43:01;;;;;;;12.90;3.50;;;;;;;;;;5055379;28;20529;-79
2023/07/04 06:45:27;;;;;;;13.47;3.80;;;;;;;;;;5057481;28;20405;-79
2023/07/04 06:47:53;;;;;;;19.90;4.23;;;;;;;;;;5057389;28;20416;-80
2023/07/04 06:50:19;;;;;;;9.63;3.90;;;;;;;;;;5039850;28;20387;-79
2023/07/04 06:52:45;;;;;;;16.97;4.83;;;;;;;;;;5039413;28;20401;-79
2023/07/04 06:55:11;;;;;;;11.33;3.73;;;;;;;;;;5055431;28;20537;-79
2023/07/04 06:57:37;;;;;;;12.07;3.97;;;;;;;;;;5057324;28;20400;-79
2023/07/04 07:00:03;;;;;;;10.33;3.20;;;;;;;;;;5055790;28;20439;-80
2023/07/04 07:02:29;;;;;;;9.00;2.87;;;;;;;;;;5060934;28;20419;-79
2023/07/04 07:04:55;;;;;;;12.47;4.27;;;;;;;;;;5057332;28;20889;-80
2023/07/04 07:07:21;;;;;;;12.63;3.57;;;;;;;;;;5057353;28;20455;-79
2023/07/04 07:09:47;;;;;;;10.30;3.07;;;;;;;;;;5039334;28;20757;-79
2023/07/04 07:12:13;;;;;;;13.63;3.40;;;;;;;;;;5055466;28;20900;-79
2023/07/04 07:14:39;;;;;;;15.97;4.43;;;;;;;;;;5056956;28;20459;-79
2023/07/04 07:17:06;;;;;;;16.17;4.30;;;;;;;;;;5056440;28;20411;-80
2023/07/04 07:19:32;;;;;;;10.40;3.27;;;;;;;;;;5055195;28;20395;-79
2023/07/04 07:22:01;;;;;;;13.50;3.80;;;;;;;;;;5056119;28;20393;-80
2023/07/04 07:24:30;;;;;;;12.87;3.57;;;;;;;;;;5056042;28;20408;-80
2023/07/04 07:26:57;;;;;;;14.40;4.03;;;;;;;;;;5056749;28;20751;-81
2023/07/04 07:29:23;;;;;;;8.17;2.90;;;;;;;;;;5055223;28;20394;-79
2023/07/04 07:31:50;;;;;;;13.90;5.30;;;;;;;;;;5056175;28;20455;-79
2023/07/04 07:34:17;;;;;;;9.33;3.10;;;;;;;;;;5055162;28;20789;-80
2023/07/04 07:36:43;;;;;;;12.70;3.60;;;;;;;;;;5056042;28;20379;-79
2023/07/04 07:39:11;;;;;;;14.43;3.30;;;;;;;;;;5055825;28;20732;-79
2023/07/04 07:41:39;;;;;;;12.20;4.13;;;;;;;;;;5056041;28;20371;-80
2023/07/04 07:44:06;;;;;;;11.50;3.87;;;;;;;;;;5054719;28;20446;-80
2023/07/04 07:46:32;;;;;;;10.40;3.50;;;;;;;;;;5055273;28;20394;-79
2023/07/04 07:48:59;;;;;;;17.03;3.80;;;;;;;;;;5056468;28;20478;-80
2023/07/04 07:51:25;;;;;;;7.83;3.63;;;;;;;;;;5054478;28;20429;-79
2023/07/04 07:53:53;;;;;;;13.33;3.30;;;;;;;;;;5055049;28;20513;-80
2023/07/04 07:56:20;;;;;;;11.83;3.10;;;;;;;;;;5055972;28;20443;-80
2023/07/04 07:58:46;;;;;;;9.43;3.20;;;;;;;;;;5055697;28;20447;-79
2023/07/04 08:01:38;;;;;;;12.80;3.47;;;;;;;;;;5037984;28;20415;-80
2023/07/04 08:04:05;;;;;;;12.00;3.37;;;;;;;;;;5051149;28;20463;-79
2023/07/04 08:06:33;;;;;;;10.00;3.73;;;;;;;;;;5055433;28;20421;-80
2023/07/04 08:09:01;;;;;;;6.43;2.83;;;;;;;;;;5053671;28;20402;-80
2023/07/04 08:11:28;;;;;;;5.43;2.83;;;;;;;;;;5055934;28;20466;-80
2023/07/04 08:13:54;;;;;;;12.83;3.07;;;;;;;;;;5055461;28;20454;-79
2023/07/04 08:16:25;;;;;;;9.47;2.27;;;;;;;;;;5054765;28;20379;-79
2023/07/04 08:18:51;;;;;;;5.83;1.67;;;;;;;;;;5055219;28;20388;-79
2023/07/04 08:21:17;;;;;;;6.00;2.57;;;;;;;;;;5057155;28;20537;-79
2023/07/04 08:23:43;;;;;;;10.67;3.23;;;;;;;;;;5058372;28;20390;-79
2023/07/04 08:26:21;;;;;;;4.03;2.23;;;;;;;;;;5057527;28;20434;-80
2023/07/04 08:28:47;;;;;;;6.43;2.73;;;;;;;;;;5055582;28;20469;-79
2023/07/04 08:31:17;;;;;;;9.20;2.60;;;;;;;;;;5054912;28;20803;-79
2023/07/04 08:33:43;;;;;;;9.43;2.80;;;;;;;;;;5054688;28;20435;-79
2023/07/04 08:36:10;;;;;;;14.53;3.50;;;;;;;;;;5038276;28;20467;-80
2023/07/04 08:38:36;;;;;;;9.13;2.93;;;;;;;;;;5057909;28;20919;-79
2023/07/04 08:41:02;;;;;;;7.20;2.43;;;;;;;;;;5058007;28;20420;-80
2023/07/04 08:43:34;;;;;;;7.40;2.90;;;;;;;;;;5058817;28;20969;-79
2023/07/04 08:46:01;;;;;;;6.30;2.57;;;;;;;;;;5057646;28;20424;-80
2023/07/04 08:48:28;;;;;;;7.60;2.80;;;;;;;;;;5057417;28;20412;-79
2023/07/04 08:50:56;;;;;;;6.77;2.10;;;;;;;;;;5061098;28;20447;-79
2023/07/04 08:53:23;;;;;;;5.60;2.73;;;;;;;;;;5058823;28;20400;-79
2023/07/04 08:55:55;;;;;;;9.60;2.97;;;;;;;;;;5040981;28;20529;-79
2023/07/04 08:58:23;;;;;;;5.10;2.83;;;;;;;;;;5056846;28;20395;-80
2023/07/04 09:00:49;;;;;;;7.70;2.47;;;;;;;;;;5058129;28;20371;-84
2023/07/04 09:03:32;;;;;;;6.83;2.00;;;;;;;;;;5056569;28;20783;-84
2023/07/04 09:05:58;;;;;;;14.00;3.87;;;;;;;;;;5056326;28;20920;-83
2023/07/04 09:08:45;;;;;;;5.70;2.90;;;;;;;;;;5057268;28;20462;-82
2023/07/04 09:11:12;;;;;;;8.40;2.57;;;;;;;;;;5055951;28;20436;-81
2023/07/04 09:13:40;;;;;;;7.73;3.00;;;;;;;;;;5057347;28;20396;-82
2023/07/04 09:16:17;;;;;;;7.30;3.57;;;;;;;;;;5057537;28;20455;-82
2023/07/04 09:19:01;;;;;;;8.53;3.40;;;;;;;;;;5059741;28;20411;-83
2023/07/04 09:21:28;;;;;;;6.00;2.50;;;;;;;;;;5058029;28;20386;-87
2023/07/04 09:23:56;;;;;;;10.63;3.50;;;;;;;;;;5040530;28;20416;-87
2023/07/04 09:26:24;;;;;;;10.37;3.33;;;;;;;;;;5056044;28;20927;-83
2023/07/04 09:28:51;;;;;;;7.00;3.50;;;;;;;;;;5056102;28;20425;-83
2023/07/04 09:31:23;;;;;;;7.90;3.43;;;;;;;;;;5057284;28;20399;-82
2023/07/04 09:33:52;;;;;;;6.57;3.47;;;;;;;;;;5057016;28;20412;-83
2023/07/04 09:36:18;;;;;;;7.90;3.50;;;;;;;;;;5056874;28;20550;-83
2023/07/04 09:38:51;;;;;;;10.07;4.57;;;;;;;;;;5055779;28;20474;-85
2023/07/04 09:41:19;;;;;;;6.43;3.97;;;;;;;;;;5056500;28;20390;-84
2023/07/04 09:43:45;;;;;;;11.30;3.57;;;;;;;;;;5056930;28;20430;-86
2023/07/04 09:46:13;;;;;;;5.80;3.20;;;;;;;;;;5056463;28;20416;-83
2023/07/04 09:48:39;;;;;;;6.90;3.20;;;;;;;;;;5056856;28;20386;-84
2023/07/04 09:51:32;;;;;;;9.17;3.57;;;;;;;;;;5056274;28;20420;-85
2023/07/04 09:54:18;;;;;;;6.10;3.00;;;;;;;;;;5035678;28;20420;-85
2023/07/04 09:56:45;;;;;;;10.47;3.73;;;;;;;;;;5036564;28;20360;-85
2023/07/04 09:59:12;;;;;;;10.77;3.20;;;;;;;;;;5035166;28;21015;-85
2023/07/04 10:01:43;;;;;;;10.03;3.20;;;;;;;;;;5035680;28;20428;-81
2023/07/04 10:04:11;;;;;;;7.43;3.60;;;;;;;;;;5036587;28;20726;-81
2023/07/04 10:06:38;;;;;;;5.70;3.23;;;;;;;;;;5036919;28;20404;-80
2023/07/04 10:09:15;;;;;;;7.10;3.67;;;;;;;;;;5037529;28;20420;-83
2023/07/04 10:11:41;;;;;;;9.33;3.67;;;;;;;;;;5056146;28;20387;-80
2023/07/04 10:14:08;;;;;;;9.77;4.43;;;;;;;;;;5054523;28;20404;-79
2023/07/04 10:16:35;;;;;;;10.23;3.47;;;;;;;;;;5056296;28;20400;-79
2023/07/04 10:19:04;;;;;;;8.17;4.23;;;;;;;;;;5056364;28;20439;-79
2023/07/04 10:21:30;;;;;;;8.77;4.00;;;;;;;;;;5056171;28;20404;-81
2023/07/04 10:23:58;;;;;;;6.93;4.50;;;;;;;;;;5054919;28;20420;-80
2023/07/04 10:26:24;;;;;;;7.67;3.77;;;;;;;;;;5054687;28;20631;-80
2023/07/04 10:28:52;;;;;;;18.53;4.40;;;;;;;;;;5038400;28;20932;-80
2023/07/04 10:31:21;;;;;;;10.13;4.17;;;;;;;;;;5056241;28;20412;-79
2023/07/04 10:33:59;;;;;;;6.17;3.60;;;;;;;;;;5056648;28;20400;-79
2023/07/04 10:36:28;;;;;;;9.83;4.03;;;;;;;;;;5056038;28;20446;-80
2023/07/04 10:38:56;;;;;;;6.83;3.20;;;;;;;;;;5055781;28;20404;-81
2023/07/04 10:41:31;;;;;;;6.87;4.00;;;;;;;;;;5055587;28;20404;-79
2023/07/04 10:44:00;;;;;;;8.90;4.17;;;;;;;;;;5055180;28;20507;-81
2023/07/04 10:46:29;;;;;;;6.57;3.37;;;;;;;;;;5055971;28;20433;-80
2023/07/04 10:49:07;;;;;;;6.43;3.67;;;;;;;;;;5055711;28;20404;-79
2023/07/04 10:51:36;;;;;;;14.50;3.80;;;;;;;;;;5053958;28;20809;-80
2023/07/04 10:54:03;;;;;;;6.30;3.93;;;;;;;;;;5053076;28;20511;-80
2023/07/04 10:56:32;;;;;;;6.80;3.77;;;;;;;;;;5054030;28;20481;-80
2023/07/04 10:59:07;;;;;;;7.87;4.53;;;;;;;;;;5052736;28;20520;-80
2023/07/04 11:01:45;;;;;;;7.30;4.37;;;;;;;;;;5053763;28;20390;-80
2023/07/04 11:04:23;;;;;;;9.77;4.33;;;;;;;;;;5053835;28;20478;-80
2023/07/04 11:07:04;;;;;;;6.63;3.80;;;;;;;;;;5053009;28;20922;-81
2023/07/04 11:09:39;;;;;;;9.27;3.93;;;;;;;;;;5053338;28;20447;-81
2023/07/04 11:12:06;;;;;;;8.60;3.97;;;;;;;;;;5054084;28;20825;-80
2023/07/04 11:14:33;;;;;;;7.73;4.30;;;;;;;;;;5052836;28;20463;-80
2023/07/04 11:17:04;;;;;;;7.97;4.37;;;;;;;;;;5054867;28;20408;-80
2023/07/04 11:19:34;;;;;;;10.83;4.10;;;;;;;;;;5053304;28;20416;-81
2023/07/04 11:22:03;;;;;;;4.97;4.00;;;;;;;;;;5053413;28;20503;-80
2023/07/04 11:24:33;;;;;;;5.37;3.47;;;;;;;;;;5054516;28;20408;-80
2023/07/04 11:27:00;;;;;;;8.93;4.30;;;;;;;;;;5053350;28;20412;-82
2023/07/04 11:29:27;;;;;;;8.90;4.60;;;;;;;;;;5052443;28;20402;-80
2023/07/04 11:32:02;;;;;;;7.40;4.40;;;;;;;;;;5053537;28;20394;-79
2023/07/04 11:34:48;;;;;;;11.20;4.63;;;;;;;;;;5053988;28;20494;-81
2023/07/04 11:37:22;;;;;;;5.53;4.53;;;;;;;;;;5032594;28;20421;-80
2023/07/04 11:39:50;;;;;;;10.00;5.37;;;;;;;;;;5034868;28;20378;-80
2023/07/04 11:42:23;;;;;;;10.97;4.53;;;;;;;;;;5034448;28;20530;-80
2023/07/04 11:44:53;;;;;;;9.17;4.70;;;;;;;;;;5033933;28;20437;-81
2023/07/04 11:47:33;;;;;;;10.17;5.20;;;;;;;;;;5033124;28;20447;-81
2023/07/04 11:50:02;;;;;;;10.80;5.00;;;;;;;;;;5035132;28;20437;-81
2023/07/04 11:52:29;;;;;;;5.33;4.50;;;;;;;;;;5051796;28;20451;-80
2023/07/04 11:54:59;;;;;;;9.10;5.90;;;;;;;;;;5051166;28;20539;-80
2023/07/04 11:57:45;;;;;;;7.70;4.93;;;;;;;;;;5052123;28;20508;-80
2023/07/04 12:00:31;;;;;;;8.27;4.87;;;;;;;;;;5052007;28;20455;-80
2023/07/04 12:02:58;;;;;;;7.87;4.23;;;;;;;;;;5046989;28;20452;-82
2023/07/04 12:05:31;;;;;;;8.20;4.20;;;;;;;;;;5038600;28;20420;-82
2023/07/04 12:08:01;;;;;;;6.60;4.50;;;;;;;;;;5056226;28;20418;-80
2023/07/04 12:10:28;;;;;;;7.40;4.40;;;;;;;;;;5055812;28;20419;-81
2023/07/04 12:13:07;;;;;;;8.10;4.20;;;;;;;;;;5053836;28;20416;-82
2023/07/04 12:15:34;;;;;;;7.97;4.50;;;;;;;;;;5055522;28;20459;-82
2023/07/04 12:18:01;;;;;;;6.30;4.00;;;;;;;;;;5054589;28;20470;-81
2023/07/04 12:20:28;;;;;;;10.00;4.60;;;;;;;;;;5053824;28;20461;-79
2023/07/04 12:22:58;;;;;;;5.77;4.57;;;;;;;;;;5059690;28;20419;-80
2023/07/04 12:25:25;;;;;;;5.17;4.63;;;;;;;;;;5053921;28;20440;-81
2023/07/04 12:28:01;;;;;;;7.60;5.10;;;;;;;;;;5054558;28;20404;-80
2023/07/04 12:30:28;;;;;;;10.20;4.80;;;;;;;;;;5054276;28;20457;-81
2023/07/04 12:32:54;;;;;;;9.47;5.23;;;;;;;;;;5053371;28;20416;-79
2023/07/04 12:35:25;;;;;;;10.20;4.77;;;;;;;;;;5036267;28;20589;-79
2023/07/04 12:37:55;;;;;;;16.13;6.07;;;;;;;;;;5053124;28;20443;-80
2023/07/04 12:40:23;;;;;;;7.93;5.17;;;;;;;;;;5054610;28;20400;-80
2023/07/04 12:42:50;;;;;;;8.30;6.30;;;;;;;;;;5052520;28;20614;-79
2023/07/04 12:45:22;;;;;;;11.10;5.37;;;;;;;;;;5054380;28;20419;-80
2023/07/04 12:47:49;;;;;;;9.03;5.73;;;;;;;;;;5052870;28;20444;-78
2023/07/04 12:50:16;;;;;;;11.97;5.70;;;;;;;;;;5054013;28;20412;-78
2023/07/04 12:52:43;;;;;;;7.70;5.37;;;;;;;;;;5053690;28;20420;-80
2023/07/04 12:55:15;;;;;;;9.37;5.37;;;;;;;;;;5053659;28;20558;-79
2023/07/04 12:57:41;;;;;;;6.87;4.90;;;;;;;;;;5053242;28;20925;-79
2023/07/04 13:00:19;;;;;;;6.10;5.13;;;;;;;;;;5036980;28;20439;-78
2023/07/04 13:02:47;;;;;;;10.30;5.67;;;;;;;;;;5053461;28;20420;-78
2023/07/04 13:05:13;;;;;;;9.17;6.00;;;;;;;;;;5054697;28;20816;-81
2023/07/04 13:07:42;;;;;;;10.60;6.73;;;;;;;;;;5053153;28;20412;-79
2023/07/04 13:10:10;;;;;;;8.83;5.90;;;;;;;;;;5053073;28;20530;-79
2023/07/04 13:12:36;;;;;;;8.60;5.03;;;;;;;;;;5054017;28;20403;-78
2023/07/04 13:15:09;;;;;;;9.17;5.20;;;;;;;;;;5053948;28;20456;-77
2023/07/04 13:17:35;;;;;;;10.90;5.60;;;;;;;;;;5052098;28;20408;-78
2023/07/04 13:20:31;;;;;;;9.67;5.40;;;;;;;;;;5054100;28;20408;-79
2023/07/04 13:23:17;;;;;;;9.10;5.67;;;;;;;;;;5046712;28;20416;-78
2023/07/04 13:25:44;;;;;;;6.77;5.67;;;;;;;;;;5058536;28;20427;-78
2023/07/04 13:28:20;;;;;;;11.30;5.80;;;;;;;;;;5056233;28;20456;-78
2023/07/04 13:30:46;;;;;;;9.50;5.40;;;;;;;;;;5057374;28;20388;-78
2023/07/04 13:33:33;;;;;;;8.07;5.10;;;;;;;;;;5056695;28;20404;-78
2023/07/04 13:36:25;;;;;;;7.33;5.50;;;;;;;;;;5056077;28;20447;-78
2023/07/04 13:38:53;;;;;;;6.90;5.13;;;;;;;;;;5041239;28;20993;-78
2023/07/04 13:41:22;;;;;;;6.23;5.33;;;;;;;;;;5055958;28;20416;-79
2023/07/04 13:43:48;;;;;;;6.67;5.10;;;;;;;;;;5055699;28;20463;-78
2023/07/04 13:46:14;;;;;;;8.23;5.80;;;;;;;;;;5039225;28;20424;-77
2023/07/04 13:48:41;;;;;;;7.53;5.20;;;;;;;;;;5056551;28;20772;-78
2023/07/04 13:51:07;;;;;;;9.90;6.07;;;;;;;;;;5055811;28;20454;-78
2023/07/04 13:53:33;;;;;;;11.87;6.40;;;;;;;;;;5057037;28;20537;-78
2023/07/04 13:55:59;;;;;;;11.40;5.77;;;;;;;;;;5038614;28;20491;-78
2023/07/04 13:58:27;;;;;;;7.97;5.70;;;;;;;;;;5056425;28;20419;-77
2023/07/04 14:00:53;;;;;;;10.00;5.80;;;;;;;;;;5038699;28;20436;-78
2023/07/04 14:03:19;;;;;;;6.63;5.93;;;;;;;;;;5056786;28;20412;-78
2023/07/04 14:05:45;;;;;;;8.03;5.97;;;;;;;;;;5038689;28;20514;-78
2023/07/04 14:08:12;;;;;;;7.53;6.13;;;;;;;;;;5055369;28;20412;-78
2023/07/04 14:10:38;;;;;;;8.80;5.50;;;;;;;;;;5056454;28;20549;-78
2023/07/04 14:13:05;;;;;;;9.90;6.17;;;;;;;;;;5055728;28;20822;-81
2023/07/04 14:15:31;;;;;;;8.87;5.40;;;;;;;;;;5056538;28;20459;-80
2023/07/04 14:17:58;;;;;;;12.83;5.67;;;;;;;;;;5055702;28;20432;-81
2023/07/04 14:20:24;;;;;;;9.50;6.53;;;;;;;;;;5056573;28;20488;-81
2023/07/04 14:22:51;;;;;;;8.07;5.37;;;;;;;;;;5039524;28;20518;-80
2023/07/04 14:25:17;;;;;;;8.63;6.40;;;;;;;;;;5057396;28;20416;-80
2023/07/04 14:27:43;;;;;;;7.27;5.80;;;;;;;;;;5040101;28;20447;-79
2023/07/04 14:30:09;;;;;;;8.93;6.10;;;;;;;;;;5053008;28;20439;-79
2023/07/04 14:32:35;;;;;;;8.27;5.20;;;;;;;;;;5056667;28;20468;-80
2023/07/04 14:35:02;;;;;;;9.10;6.37;;;;;;;;;;5054343;28;20828;-79
2023/07/04 14:37:28;;;;;;;9.13;5.57;;;;;;;;;;5054051;28;20507;-79
2023/07/04 14:39:54;;;;;;;12.57;5.70;;;;;;;;;;5056505;28;20795;-79
2023/07/04 14:42:21;;;;;;;12.00;6.10;;;;;;;;;;5056982;28;20495;-78